createdAt,value
2023-04-13T00:00:48.941Z,7.60
2023-04-13T00:03:58.320Z,7.60
2023-04-13T00:07:06.963Z,7.50
2023-04-13T00:10:16.061Z,7.50
2023-04-13T00:13:26.267Z,7.50
2023-04-13T00:16:34.671Z,7.50
2023-04-13T00:19:43.292Z,7.40
2023-04-13T00:22:51.805Z,7.40
2023-04-13T00:26:01.772Z,7.40
2023-04-13T00:29:12.038Z,7.40
2023-04-13T00:32:20.589Z,7.40
2023-04-13T00:35:28.975Z,7.50
2023-04-13T00:38:39.940Z,7.50
2023-04-13T00:41:49.288Z,7.50
2023-04-13T00:44:58.996Z,7.50
2023-04-13T00:48:10.881Z,7.50
2023-04-13T00:51:20.058Z,7.40
2023-04-13T00:54:29.317Z,7.50
2023-04-13T00:57:40.324Z,7.50
2023-04-13T01:00:50.086Z,7.40
2023-04-13T01:03:59.467Z,7.50
2023-04-13T01:07:14.136Z,7.40
2023-04-13T01:10:27.805Z,7.40
2023-04-13T01:13:42.109Z,7.40
2023-04-13T01:16:56.900Z,7.40
2023-04-13T01:20:12.247Z,7.40
2023-04-13T01:23:32.354Z,7.40
2023-04-13T01:26:57.345Z,7.30
2023-04-13T01:30:10.883Z,7.30
2023-04-13T01:33:20.850Z,7.30
2023-04-13T01:36:30.536Z,7.30
2023-04-13T01:39:40.028Z,7.20
2023-04-13T01:43:05.057Z,7.30
2023-04-13T01:46:29.979Z,7.20
2023-04-13T01:50:05.092Z,7.20
2023-04-13T01:53:23.069Z,7.20
2023-04-13T01:56:32.110Z,7.20
2023-04-13T01:59:45.016Z,7.20
2023-04-13T02:02:59.778Z,7.20
2023-04-13T02:06:08.887Z,7.20
2023-04-13T02:09:20.295Z,7.20
2023-04-13T02:12:32.547Z,7.20
2023-04-13T02:15:42.904Z,7.20
2023-04-13T02:18:52.745Z,7.20
2023-04-13T02:22:02.227Z,7.10
2023-04-13T02:25:12.720Z,7.10
2023-04-13T02:28:21.125Z,7.10
2023-04-13T02:31:31.969Z,7.10
2023-04-13T02:34:42.726Z,7.00
2023-04-13T02:37:51.801Z,7.10
2023-04-13T02:41:01.327Z,7.10
2023-04-13T02:44:10.456Z,7.00
2023-04-13T02:47:28.787Z,7.00
2023-04-13T02:50:40.963Z,7.00
2023-04-13T02:53:55.307Z,7.10
2023-04-13T02:57:05.180Z,7.10
2023-04-13T03:00:17.543Z,7.00
2023-04-13T03:03:33.317Z,7.00
2023-04-13T03:06:44.285Z,7.00
2023-04-13T03:09:53.848Z,7.00
2023-04-13T03:13:02.364Z,7.00
2023-04-13T03:16:12.101Z,7.00
2023-04-13T03:19:22.063Z,7.00
2023-04-13T03:22:32.207Z,7.00
2023-04-13T03:25:44.230Z,7.00
2023-04-13T03:28:53.033Z,7.00
2023-04-13T03:32:01.779Z,7.00
2023-04-13T03:35:14.082Z,7.10
2023-04-13T03:38:23.962Z,7.00
2023-04-13T03:41:34.026Z,7.00
2023-04-13T03:44:43.581Z,7.00
2023-04-13T03:47:52.501Z,7.00
2023-04-13T03:51:03.255Z,7.00
2023-04-13T03:54:23.976Z,7.00
2023-04-13T03:57:33.367Z,7.00
2023-04-13T04:00:44.653Z,7.10
2023-04-13T04:04:04.995Z,7.20
2023-04-13T04:07:13.903Z,7.10
2023-04-13T04:10:24.144Z,7.10
2023-04-13T04:13:32.951Z,7.10
2023-04-13T04:16:45.291Z,7.20
2023-04-13T04:19:56.860Z,7.10
2023-04-13T04:23:09.905Z,7.20
2023-04-13T04:26:38.236Z,7.20
2023-04-13T04:29:49.505Z,7.20
2023-04-13T04:33:07.443Z,7.20
2023-04-13T04:36:18.620Z,7.20
2023-04-13T04:39:44.685Z,7.20
2023-04-13T04:42:59.660Z,7.20
2023-04-13T04:46:17.216Z,7.30
2023-04-13T04:49:32.134Z,7.30
2023-04-13T04:52:43.546Z,7.30
2023-04-13T04:55:55.380Z,7.40
2023-04-13T04:59:20.783Z,7.40
2023-04-13T05:02:42.513Z,7.40
2023-04-13T05:05:52.927Z,7.50
2023-04-13T05:09:09.990Z,7.50
2023-04-13T05:12:21.371Z,7.50
2023-04-13T05:15:31.240Z,7.50
2023-04-13T05:18:48.222Z,7.60
2023-04-13T05:22:26.076Z,7.50
2023-04-13T05:25:41.773Z,7.60
2023-04-13T05:28:58.319Z,7.60
2023-04-13T05:32:11.129Z,7.60
2023-04-13T05:35:19.830Z,7.60
2023-04-13T05:38:28.767Z,7.50
2023-04-13T05:41:38.895Z,7.50
2023-04-13T05:44:48.762Z,7.40
2023-04-13T05:48:01.280Z,7.40
2023-04-13T05:51:10.563Z,7.40
2023-04-13T05:54:19.023Z,7.30
2023-04-13T05:57:30.984Z,7.30
2023-04-13T06:00:43.199Z,7.30
2023-04-13T06:03:56.547Z,7.20
2023-04-13T06:07:05.891Z,7.30
2023-04-13T06:10:16.868Z,7.30
2023-04-13T06:13:26.079Z,7.30
2023-04-13T06:16:34.435Z,7.30
2023-04-13T06:19:44.474Z,7.30
2023-04-13T06:22:52.905Z,7.30
2023-04-13T06:26:05.761Z,7.30
2023-04-13T06:29:28.808Z,7.30
2023-04-13T06:32:47.187Z,7.30
2023-04-13T06:36:00.336Z,7.30
2023-04-13T06:39:10.478Z,7.30
2023-04-13T06:42:20.122Z,7.30
2023-04-13T06:45:49.623Z,7.30
2023-04-13T06:49:02.804Z,7.30
2023-04-13T06:52:14.849Z,7.30
2023-04-13T06:55:23.741Z,7.30
2023-04-13T06:58:32.262Z,7.20
2023-04-13T07:01:40.792Z,7.30
2023-04-13T07:04:49.782Z,7.30
2023-04-13T07:07:59.981Z,7.30
2023-04-13T07:11:10.322Z,7.40
2023-04-13T07:14:20.833Z,7.30
2023-04-13T07:17:30.072Z,7.30
2023-04-13T07:20:39.764Z,7.40
2023-04-13T07:23:50.259Z,7.40
2023-04-13T07:26:59.748Z,7.40
2023-04-13T07:30:10.128Z,7.40
2023-04-13T07:33:23.456Z,7.50
2023-04-13T07:36:33.571Z,7.50
2023-04-13T07:39:49.707Z,7.80
2023-04-13T07:42:59.520Z,8.10
2023-04-13T07:46:11.911Z,8.20
2023-04-13T07:49:22.825Z,8.40
2023-04-13T07:52:32.461Z,8.30
2023-04-13T07:55:42.620Z,8.20
2023-04-13T07:58:51.818Z,8.20
2023-04-13T08:02:01.010Z,8.20
2023-04-13T08:05:13.906Z,8.30
2023-04-13T08:08:24.939Z,8.40
2023-04-13T08:11:34.811Z,8.30
2023-04-13T08:14:47.451Z,8.40
2023-04-13T08:17:56.125Z,8.40
2023-04-13T08:21:11.033Z,8.40
2023-04-13T08:24:21.873Z,8.50
2023-04-13T08:27:31.804Z,8.50
2023-04-13T08:30:40.305Z,8.60
2023-04-13T08:33:57.720Z,8.60
2023-04-13T08:37:07.438Z,8.60
2023-04-13T08:40:20.128Z,8.70
2023-04-13T08:43:30.434Z,8.90
2023-04-13T08:46:39.463Z,8.90
2023-04-13T08:49:50.584Z,8.90
2023-04-13T08:53:03.882Z,8.90
2023-04-13T08:56:16.168Z,8.90
2023-04-13T08:59:31.569Z,8.90
2023-04-13T09:02:56.211Z,8.90
2023-04-13T09:06:14.009Z,8.80
2023-04-13T09:09:24.218Z,8.80
2023-04-13T09:12:33.767Z,8.70
2023-04-13T09:15:47.381Z,8.80
2023-04-13T09:19:32.052Z,8.80
2023-04-13T09:22:41.096Z,8.70
2023-04-13T09:25:50.480Z,8.70
2023-04-13T09:28:59.723Z,8.80
2023-04-13T09:32:20.887Z,8.70
2023-04-13T09:35:32.994Z,8.80
2023-04-13T09:38:44.520Z,8.80
2023-04-13T09:41:53.600Z,8.70
2023-04-13T09:45:02.278Z,8.80
2023-04-13T09:48:20.766Z,8.80
2023-04-13T09:51:37.417Z,8.80
2023-04-13T09:54:51.352Z,8.90
2023-04-13T09:58:11.340Z,9.00
2023-04-13T10:01:21.086Z,9.10
2023-04-13T10:04:32.352Z,9.10
2023-04-13T10:07:44.246Z,9.00
2023-04-13T10:10:52.938Z,9.10
2023-04-13T10:14:11.233Z,9.00
2023-04-13T10:17:41.039Z,9.10
2023-04-13T10:20:53.548Z,9.00
2023-04-13T10:24:02.725Z,9.10
2023-04-13T10:27:17.715Z,9.20
2023-04-13T10:30:27.814Z,9.20
2023-04-13T10:33:36.243Z,9.30
2023-04-13T10:36:47.018Z,9.30
2023-04-13T10:40:06.468Z,9.40
2023-04-13T10:43:29.919Z,9.40
2023-04-13T10:46:38.513Z,9.50
2023-04-13T10:49:47.886Z,9.50
2023-04-13T10:53:03.932Z,9.60
2023-04-13T10:56:17.949Z,9.60
2023-04-13T10:59:53.039Z,9.60
2023-04-13T11:03:06.633Z,9.70
2023-04-13T11:06:16.746Z,9.80
2023-04-13T11:09:30.261Z,9.90
2023-04-13T11:12:38.683Z,9.90
2023-04-13T11:15:47.171Z,9.90
2023-04-13T11:19:05.515Z,9.90
2023-04-13T11:22:18.028Z,10.10
2023-04-13T11:25:28.815Z,10.30
2023-04-13T11:28:42.268Z,10.30
2023-04-13T11:31:53.671Z,10.50
2023-04-13T11:35:09.577Z,10.50
2023-04-13T11:38:18.865Z,10.50
2023-04-13T11:41:32.404Z,10.50
2023-04-13T11:44:42.804Z,10.50
2023-04-13T11:47:51.835Z,10.60
2023-04-13T11:51:01.251Z,11.00
2023-04-13T11:54:10.663Z,11.10
2023-04-13T11:57:20.751Z,11.30
2023-04-13T12:00:29.941Z,11.40
2023-04-13T12:03:53.609Z,11.40
2023-04-13T12:07:15.239Z,11.30
2023-04-13T12:10:29.229Z,11.40
2023-04-13T12:14:05.964Z,11.20
2023-04-13T12:17:38.036Z,11.20
2023-04-13T12:20:48.792Z,11.20
2023-04-13T12:23:59.336Z,11.30
2023-04-13T12:30:23.509Z,11.20
2023-04-13T12:33:32.702Z,11.20
2023-04-13T12:36:41.288Z,11.30
2023-04-13T12:39:49.745Z,11.10
2023-04-13T12:42:58.188Z,11.00
2023-04-13T12:46:08.087Z,10.90
2023-04-13T12:49:16.675Z,11.10
2023-04-13T12:52:57.040Z,11.40
2023-04-13T12:56:05.819Z,11.50
2023-04-13T12:59:14.198Z,11.50
2023-04-13T13:02:25.189Z,11.50
2023-04-13T13:05:33.764Z,11.40
2023-04-13T13:08:45.204Z,11.40
2023-04-13T13:11:53.744Z,11.40
2023-04-13T13:15:03.297Z,11.50
2023-04-13T13:18:13.702Z,11.40
2023-04-13T13:21:23.233Z,11.50
2023-04-13T13:24:31.965Z,11.30
2023-04-13T13:28:12.697Z,11.30
2023-04-13T13:31:13.318Z,11.40
2023-04-13T13:34:23.385Z,11.40
2023-04-13T13:37:31.807Z,11.40
2023-04-13T13:40:40.464Z,11.40
2023-04-13T13:43:52.025Z,11.30
2023-04-13T13:47:01.275Z,11.40
2023-04-13T13:50:13.207Z,11.50
2023-04-13T13:53:25.960Z,11.50
2023-04-13T13:56:35.873Z,11.50
2023-04-13T13:59:44.304Z,11.60
2023-04-13T14:02:53.119Z,11.70
2023-04-13T14:06:03.470Z,11.80
2023-04-13T14:09:12.345Z,11.60
2023-04-13T14:12:20.665Z,11.50
2023-04-13T14:15:29.220Z,11.50
2023-04-13T14:18:37.640Z,11.70
2023-04-13T14:21:49.048Z,11.70
2023-04-13T14:24:57.483Z,11.50
2023-04-13T14:28:09.494Z,11.50
2023-04-13T14:31:18.036Z,11.60
2023-04-13T14:34:26.706Z,11.70
2023-04-13T14:37:36.589Z,11.60
2023-04-13T14:40:45.195Z,11.70
2023-04-13T14:43:56.510Z,11.70
2023-04-13T14:47:08.647Z,11.80
2023-04-13T14:50:18.433Z,11.80
2023-04-13T14:53:28.333Z,11.90
2023-04-13T14:56:36.734Z,11.90
2023-04-13T14:59:56.654Z,11.80
2023-04-13T15:03:06.288Z,11.90
2023-04-13T15:06:15.126Z,12.00
2023-04-13T15:09:25.760Z,12.00
2023-04-13T15:12:36.455Z,12.10
2023-04-13T15:15:44.888Z,12.30
2023-04-13T15:18:53.236Z,12.30
2023-04-13T15:22:02.680Z,12.30
2023-04-13T15:25:15.438Z,12.20
2023-04-13T15:28:23.876Z,12.10
2023-04-13T15:31:33.469Z,12.00
2023-04-13T15:34:44.708Z,12.00
2023-04-13T15:37:53.279Z,12.10
2023-04-13T15:41:04.312Z,12.20
2023-04-13T15:44:12.854Z,12.30
2023-04-13T15:47:22.765Z,12.40
2023-04-13T15:50:31.221Z,12.60
2023-04-13T15:53:39.573Z,12.60
2023-04-13T15:56:49.540Z,12.50
2023-04-13T15:59:58.203Z,12.60
2023-04-13T16:03:07.267Z,12.50
2023-04-13T16:06:16.148Z,12.50
2023-04-13T16:09:29.696Z,12.40
2023-04-13T16:12:43.504Z,12.40
2023-04-13T16:15:57.181Z,12.40
2023-04-13T16:19:05.713Z,12.30
2023-04-13T16:22:14.275Z,12.30
2023-04-13T16:25:22.800Z,12.30
2023-04-13T16:28:35.465Z,12.30
2023-04-13T16:31:47.959Z,12.10
2023-04-13T16:34:57.134Z,12.00
2023-04-13T16:38:06.970Z,11.90
2023-04-13T16:41:16.848Z,11.70
2023-04-13T16:44:27.064Z,11.70
2023-04-13T16:47:35.379Z,11.90
2023-04-13T16:50:43.761Z,11.90
2023-04-13T16:53:52.171Z,11.60
2023-04-13T16:57:00.622Z,11.50
2023-04-13T17:00:11.834Z,11.50
2023-04-13T17:03:21.901Z,11.40
2023-04-13T17:06:30.383Z,11.50
2023-04-13T17:09:38.673Z,11.50
2023-04-13T17:12:48.260Z,11.40
2023-04-13T17:15:58.013Z,11.30
2023-04-13T17:19:07.338Z,11.30
2023-04-13T17:22:15.720Z,11.20
2023-04-13T17:25:24.304Z,11.10
2023-04-13T17:28:32.753Z,10.90
2023-04-13T17:31:42.663Z,10.90
2023-04-13T17:34:51.488Z,10.90
2023-04-13T17:37:59.784Z,11.00
2023-04-13T17:41:08.089Z,11.00
2023-04-13T17:44:17.497Z,10.90
2023-04-13T17:47:27.984Z,10.90
2023-04-13T17:50:36.301Z,10.90
2023-04-13T17:53:44.660Z,10.80
2023-04-13T17:56:53.124Z,10.90
2023-04-13T18:00:02.069Z,10.80
2023-04-13T18:03:14.651Z,10.80
2023-04-13T18:06:23.223Z,10.80
2023-04-13T18:09:31.882Z,10.80
2023-04-13T18:12:40.665Z,10.70
2023-04-13T18:15:50.334Z,10.60
2023-04-13T18:19:01.212Z,10.50
2023-04-13T18:22:09.716Z,10.50
2023-04-13T18:25:18.058Z,10.40
2023-04-13T18:28:26.960Z,10.40
2023-04-13T18:31:35.426Z,10.30
2023-04-13T18:34:45.200Z,10.30
2023-04-13T18:37:53.866Z,10.20
2023-04-13T18:41:02.248Z,10.10
2023-04-13T18:44:10.757Z,10.10
2023-04-13T18:47:20.614Z,10.00
2023-04-13T18:50:30.547Z,9.90
2023-04-13T18:53:38.915Z,9.80
2023-04-13T18:56:48.438Z,9.80
2023-04-13T18:59:57.287Z,9.70
2023-04-13T19:03:05.763Z,9.60
2023-04-13T19:06:15.508Z,9.60
2023-04-13T19:09:23.832Z,9.50
2023-04-13T19:12:33.005Z,9.50
2023-04-13T19:15:41.752Z,9.40
2023-04-13T19:18:50.037Z,9.30
2023-04-13T19:21:59.793Z,9.30
2023-04-13T19:25:14.090Z,9.30
2023-04-13T19:28:22.477Z,9.20
2023-04-13T19:31:31.338Z,9.20
2023-04-13T19:34:39.900Z,9.10
2023-04-13T19:37:49.927Z,9.10
2023-04-13T19:40:58.754Z,9.00
2023-04-13T19:44:08.765Z,8.90
2023-04-13T19:47:17.820Z,8.90
2023-04-13T19:50:26.562Z,8.90
2023-04-13T19:53:38.273Z,8.90
2023-04-13T19:56:47.332Z,8.90
2023-04-13T19:59:58.885Z,8.90
2023-04-13T20:03:08.464Z,8.90
2023-04-13T20:06:17.188Z,8.80
2023-04-13T20:09:27.375Z,8.80
2023-04-13T20:12:35.720Z,8.80
2023-04-13T20:15:44.140Z,8.80
2023-04-13T20:18:52.830Z,8.80
2023-04-13T20:22:02.274Z,8.70
2023-04-13T20:25:12.424Z,8.70
2023-04-13T20:28:21.506Z,8.70
2023-04-13T20:31:30.817Z,8.60
2023-04-13T20:34:39.278Z,8.60
2023-04-13T20:37:47.788Z,8.60
2023-04-13T20:40:59.257Z,8.60
2023-04-13T20:44:09.816Z,8.50
2023-04-13T20:47:19.547Z,8.50
2023-04-13T20:50:29.405Z,8.50
2023-04-13T20:53:41.500Z,8.50
2023-04-13T20:56:51.291Z,8.50
2023-04-13T20:59:59.638Z,8.40
2023-04-13T21:03:08.965Z,8.40
2023-04-13T21:06:20.082Z,8.30
2023-04-13T21:09:28.614Z,8.30
2023-04-13T21:12:38.772Z,8.30
2023-04-13T21:15:48.668Z,8.30
2023-04-13T21:18:57.249Z,8.20
2023-04-13T21:22:06.146Z,8.20
2023-04-13T21:25:16.782Z,8.10
2023-04-13T21:28:26.762Z,8.20
2023-04-13T21:31:35.255Z,8.10
2023-04-13T21:34:43.607Z,8.10
2023-04-13T21:37:51.911Z,8.10
2023-04-13T21:41:00.272Z,8.00
2023-04-13T21:44:26.109Z,7.90
2023-04-13T21:47:37.456Z,7.90
2023-04-13T21:50:47.646Z,7.90
2023-04-13T21:53:56.712Z,7.90
2023-04-13T21:57:05.845Z,7.80
2023-04-13T22:00:17.255Z,7.80
2023-04-13T22:03:25.799Z,7.70
2023-04-13T22:06:34.291Z,7.70
2023-04-13T22:09:42.706Z,7.70
2023-04-13T22:12:51.043Z,7.70
2023-04-13T22:16:00.916Z,7.60
2023-04-13T22:19:09.549Z,7.60
2023-04-13T22:22:18.029Z,7.50
2023-04-13T22:25:27.964Z,7.50
2023-04-13T22:28:38.574Z,7.50
2023-04-13T22:31:48.367Z,7.40
2023-04-13T22:34:57.770Z,7.40
2023-04-13T22:38:06.081Z,7.40
2023-04-13T22:41:14.695Z,7.30
2023-04-13T22:44:22.954Z,7.30
2023-04-13T22:47:32.820Z,7.30
2023-04-13T22:50:42.593Z,7.30
2023-04-13T22:53:51.046Z,7.20
2023-04-13T22:57:02.824Z,7.20
2023-04-13T23:00:13.543Z,7.10
2023-04-13T23:03:23.647Z,7.10
2023-04-13T23:06:32.417Z,7.10
2023-04-13T23:09:40.703Z,7.10
2023-04-13T23:12:49.152Z,7.00
2023-04-13T23:16:01.405Z,7.00
2023-04-13T23:19:11.460Z,6.90
2023-04-13T23:22:19.754Z,6.80
2023-04-13T23:25:28.244Z,6.80
2023-04-13T23:28:36.646Z,6.80
2023-04-13T23:31:45.037Z,6.70
2023-04-13T23:34:55.096Z,6.60
2023-04-13T23:38:03.785Z,6.50
2023-04-13T23:41:12.435Z,6.50
2023-04-13T23:44:20.759Z,6.40
2023-04-13T23:47:29.107Z,6.40
2023-04-13T23:50:43.489Z,6.30
2023-04-13T23:53:51.853Z,6.30
2023-04-13T23:57:00.287Z,6.30
